sensor_id;sensor_type;location;lat;lon;timestamp;P1;durP1;ratioP1;P2;durP2;ratioP2
45344;SDS011;31078;48.304;11.896;2022-07-18T00:01:43;3.17;;;2.20;;
45344;SDS011;31078;48.304;11.896;2022-07-18T00:04:10;6.13;;;2.50;;
45344;SDS011;31078;48.304;11.896;2022-07-18T00:06:38;3.20;;;2.20;;
45344;SDS011;31078;48.304;11.896;2022-07-18T00:09:05;4.35;;;2.20;;
45344;SDS011;31078;48.304;11.896;2022-07-18T00:11:31;4.13;;;1.98;;
45344;SDS011;31078;48.304;11.896;2022-07-18T00:13:58;3.65;;;2.50;;
45344;SDS011;31078;48.304;11.896;2022-07-18T00:16:24;3.15;;;2.13;;
45344;SDS011;31078;48.304;11.896;2022-07-18T00:18:51;3.58;;;2.30;;
45344;SDS011;31078;48.304;11.896;2022-07-18T00:21:19;5.22;;;3.00;;
45344;SDS011;31078;48.304;11.896;2022-07-18T00:23:48;5.45;;;2.60;;
45344;SDS011;31078;48.304;11.896;2022-07-18T00:26:14;6.35;;;2.40;;
45344;SDS011;31078;48.304;11.896;2022-07-18T00:28:41;5.78;;;2.83;;
45344;SDS011;31078;48.304;11.896;2022-07-18T00:31:08;3.53;;;2.60;;
45344;SDS011;31078;48.304;11.896;2022-07-18T00:33:34;4.15;;;2.78;;
45344;SDS011;31078;48.304;11.896;2022-07-18T00:36:01;3.70;;;2.97;;
45344;SDS011;31078;48.304;11.896;2022-07-18T00:38:27;5.00;;;2.72;;
45344;SDS011;31078;48.304;11.896;2022-07-18T00:40:55;3.65;;;2.95;;
45344;SDS011;31078;48.304;11.896;2022-07-18T00:43:22;4.32;;;2.53;;
45344;SDS011;31078;48.304;11.896;2022-07-18T00:45:49;4.45;;;2.72;;
45344;SDS011;31078;48.304;11.896;2022-07-18T00:48:17;5.53;;;2.55;;
45344;SDS011;31078;48.304;11.896;2022-07-18T00:50:45;3.85;;;2.65;;
45344;SDS011;31078;48.304;11.896;2022-07-18T00:53:12;5.82;;;2.60;;
45344;SDS011;31078;48.304;11.896;2022-07-18T00:55:40;3.63;;;2.92;;
45344;SDS011;31078;48.304;11.896;2022-07-18T00:58:10;4.05;;;2.85;;
45344;SDS011;31078;48.304;11.896;2022-07-18T01:00:38;4.15;;;2.92;;
45344;SDS011;31078;48.304;11.896;2022-07-18T01:03:22;5.03;;;2.67;;
45344;SDS011;31078;48.304;11.896;2022-07-18T01:05:49;6.35;;;2.80;;
45344;SDS011;31078;48.304;11.896;2022-07-18T01:08:15;4.93;;;2.70;;
45344;SDS011;31078;48.304;11.896;2022-07-18T01:10:42;4.07;;;2.70;;
45344;SDS011;31078;48.304;11.896;2022-07-18T01:13:10;3.10;;;2.60;;
45344;SDS011;31078;48.304;11.896;2022-07-18T01:15:37;3.50;;;2.85;;
45344;SDS011;31078;48.304;11.896;2022-07-18T01:18:03;4.30;;;2.70;;
45344;SDS011;31078;48.304;11.896;2022-07-18T01:20:31;6.03;;;2.80;;
45344;SDS011;31078;48.304;11.896;2022-07-18T01:22:58;3.63;;;2.85;;
45344;SDS011;31078;48.304;11.896;2022-07-18T01:25:25;3.20;;;2.42;;
45344;SDS011;31078;48.304;11.896;2022-07-18T01:27:52;2.97;;;2.50;;
45344;SDS011;31078;48.304;11.896;2022-07-18T01:30:19;4.95;;;2.92;;
45344;SDS011;31078;48.304;11.896;2022-07-18T01:32:46;3.42;;;2.58;;
45344;SDS011;31078;48.304;11.896;2022-07-18T01:35:12;3.53;;;2.53;;
45344;SDS011;31078;48.304;11.896;2022-07-18T01:37:40;6.20;;;2.70;;
45344;SDS011;31078;48.304;11.896;2022-07-18T01:40:07;4.75;;;3.08;;
45344;SDS011;31078;48.304;11.896;2022-07-18T01:42:37;4.18;;;2.80;;
45344;SDS011;31078;48.304;11.896;2022-07-18T01:45:04;5.93;;;2.70;;
45344;SDS011;31078;48.304;11.896;2022-07-18T01:47:31;4.55;;;3.13;;
45344;SDS011;31078;48.304;11.896;2022-07-18T01:49:58;3.97;;;3.03;;
45344;SDS011;31078;48.304;11.896;2022-07-18T01:52:25;3.92;;;3.00;;
45344;SDS011;31078;48.304;11.896;2022-07-18T01:54:53;5.95;;;2.80;;
45344;SDS011;31078;48.304;11.896;2022-07-18T01:57:19;4.10;;;2.92;;
45344;SDS011;31078;48.304;11.896;2022-07-18T01:59:46;6.45;;;3.17;;
45344;SDS011;31078;48.304;11.896;2022-07-18T02:02:12;5.00;;;3.00;;
45344;SDS011;31078;48.304;11.896;2022-07-18T02:04:39;4.13;;;2.80;;
45344;SDS011;31078;48.304;11.896;2022-07-18T02:07:23;3.67;;;2.85;;
45344;SDS011;31078;48.304;11.896;2022-07-18T02:09:49;5.07;;;2.95;;
45344;SDS011;31078;48.304;11.896;2022-07-18T02:12:18;4.10;;;2.90;;
45344;SDS011;31078;48.304;11.896;2022-07-18T02:14:44;4.00;;;2.83;;
45344;SDS011;31078;48.304;11.896;2022-07-18T02:17:11;4.07;;;2.90;;
45344;SDS011;31078;48.304;11.896;2022-07-18T02:19:38;3.70;;;3.13;;
45344;SDS011;31078;48.304;11.896;2022-07-18T02:22:05;3.67;;;2.80;;
45344;SDS011;31078;48.304;11.896;2022-07-18T02:24:32;6.40;;;3.55;;
45344;SDS011;31078;48.304;11.896;2022-07-18T02:26:58;3.83;;;3.20;;
45344;SDS011;31078;48.304;11.896;2022-07-18T02:29:27;4.40;;;3.38;;
45344;SDS011;31078;48.304;11.896;2022-07-18T02:31:53;4.00;;;3.40;;
45344;SDS011;31078;48.304;11.896;2022-07-18T02:34:20;5.35;;;2.90;;
45344;SDS011;31078;48.304;11.896;2022-07-18T02:36:47;4.18;;;2.92;;
45344;SDS011;31078;48.304;11.896;2022-07-18T02:39:15;4.45;;;3.10;;
45344;SDS011;31078;48.304;11.896;2022-07-18T02:41:42;6.20;;;2.85;;
45344;SDS011;31078;48.304;11.896;2022-07-18T02:44:09;4.05;;;2.78;;
45344;SDS011;31078;48.304;11.896;2022-07-18T02:46:37;5.47;;;3.70;;
45344;SDS011;31078;48.304;11.896;2022-07-18T02:49:04;4.75;;;3.40;;
45344;SDS011;31078;48.304;11.896;2022-07-18T02:51:30;5.30;;;3.50;;
45344;SDS011;31078;48.304;11.896;2022-07-18T02:53:57;6.45;;;3.30;;
45344;SDS011;31078;48.304;11.896;2022-07-18T02:56:24;3.38;;;2.97;;
45344;SDS011;31078;48.304;11.896;2022-07-18T02:58:50;3.75;;;3.10;;
45344;SDS011;31078;48.304;11.896;2022-07-18T03:01:17;4.18;;;3.00;;
45344;SDS011;31078;48.304;11.896;2022-07-18T03:03:44;5.88;;;3.03;;
45344;SDS011;31078;48.304;11.896;2022-07-18T03:06:13;3.55;;;2.95;;
45344;SDS011;31078;48.304;11.896;2022-07-18T03:08:40;4.57;;;3.17;;
45344;SDS011;31078;48.304;11.896;2022-07-18T03:11:06;4.30;;;3.40;;
45344;SDS011;31078;48.304;11.896;2022-07-18T03:13:33;4.85;;;3.38;;
45344;SDS011;31078;48.304;11.896;2022-07-18T03:16:00;5.78;;;3.30;;
45344;SDS011;31078;48.304;11.896;2022-07-18T03:18:26;5.30;;;3.85;;
45344;SDS011;31078;48.304;11.896;2022-07-18T03:20:54;7.00;;;3.65;;
45344;SDS011;31078;48.304;11.896;2022-07-18T03:23:21;5.18;;;3.45;;
45344;SDS011;31078;48.304;11.896;2022-07-18T03:25:47;4.40;;;3.50;;
45344;SDS011;31078;48.304;11.896;2022-07-18T03:28:14;5.05;;;3.50;;
45344;SDS011;31078;48.304;11.896;2022-07-18T03:30:40;4.53;;;3.33;;
45344;SDS011;31078;48.304;11.896;2022-07-18T03:33:07;5.20;;;3.80;;
45344;SDS011;31078;48.304;11.896;2022-07-18T03:35:34;5.88;;;3.80;;
45344;SDS011;31078;48.304;11.896;2022-07-18T03:38:02;5.32;;;3.70;;
45344;SDS011;31078;48.304;11.896;2022-07-18T03:40:28;3.55;;;2.92;;
45344;SDS011;31078;48.304;11.896;2022-07-18T03:42:55;7.10;;;4.00;;
45344;SDS011;31078;48.304;11.896;2022-07-18T03:45:22;5.88;;;3.88;;
45344;SDS011;31078;48.304;11.896;2022-07-18T03:47:48;5.20;;;3.70;;
45344;SDS011;31078;48.304;11.896;2022-07-18T03:50:15;5.80;;;3.95;;
45344;SDS011;31078;48.304;11.896;2022-07-18T03:52:44;5.13;;;3.50;;
45344;SDS011;31078;48.304;11.896;2022-07-18T03:55:12;7.13;;;3.85;;
45344;SDS011;31078;48.304;11.896;2022-07-18T03:57:39;6.18;;;3.70;;
45344;SDS011;31078;48.304;11.896;2022-07-18T04:00:06;6.38;;;3.88;;
45344;SDS011;31078;48.304;11.896;2022-07-18T04:02:37;5.05;;;3.60;;
45344;SDS011;31078;48.304;11.896;2022-07-18T04:05:04;6.00;;;3.40;;
45344;SDS011;31078;48.304;11.896;2022-07-18T04:07:31;8.35;;;3.90;;
45344;SDS011;31078;48.304;11.896;2022-07-18T04:09:58;4.47;;;3.60;;
45344;SDS011;31078;48.304;11.896;2022-07-18T04:12:26;4.60;;;3.85;;
45344;SDS011;31078;48.304;11.896;2022-07-18T04:14:53;6.13;;;3.50;;
45344;SDS011;31078;48.304;11.896;2022-07-18T04:17:19;6.10;;;3.65;;
45344;SDS011;31078;48.304;11.896;2022-07-18T04:19:46;6.03;;;3.78;;
45344;SDS011;31078;48.304;11.896;2022-07-18T04:22:12;6.13;;;3.80;;
45344;SDS011;31078;48.304;11.896;2022-07-18T04:24:39;6.43;;;4.03;;
45344;SDS011;31078;48.304;11.896;2022-07-18T04:27:05;5.22;;;3.95;;
45344;SDS011;31078;48.304;11.896;2022-07-18T04:29:33;6.97;;;3.53;;
45344;SDS011;31078;48.304;11.896;2022-07-18T04:32:01;5.97;;;4.22;;
45344;SDS011;31078;48.304;11.896;2022-07-18T04:34:27;5.85;;;4.00;;
45344;SDS011;31078;48.304;11.896;2022-07-18T04:36:54;6.13;;;3.60;;
45344;SDS011;31078;48.304;11.896;2022-07-18T04:39:21;4.30;;;3.60;;
45344;SDS011;31078;48.304;11.896;2022-07-18T04:41:47;4.97;;;3.38;;
45344;SDS011;31078;48.304;11.896;2022-07-18T04:44:14;4.68;;;3.50;;
45344;SDS011;31078;48.304;11.896;2022-07-18T04:46:42;5.55;;;4.18;;
45344;SDS011;31078;48.304;11.896;2022-07-18T04:49:08;9.32;;;4.07;;
45344;SDS011;31078;48.304;11.896;2022-07-18T04:51:35;4.80;;;3.33;;
45344;SDS011;31078;48.304;11.896;2022-07-18T04:54:01;6.03;;;3.78;;
45344;SDS011;31078;48.304;11.896;2022-07-18T04:56:28;4.60;;;3.40;;
45344;SDS011;31078;48.304;11.896;2022-07-18T04:58:55;5.38;;;3.30;;
45344;SDS011;31078;48.304;11.896;2022-07-18T05:01:21;5.00;;;3.17;;
45344;SDS011;31078;48.304;11.896;2022-07-18T05:03:49;6.03;;;3.50;;
45344;SDS011;31078;48.304;11.896;2022-07-18T05:06:16;5.20;;;3.38;;
45344;SDS011;31078;48.304;11.896;2022-07-18T05:08:42;4.20;;;3.50;;
45344;SDS011;31078;48.304;11.896;2022-07-18T05:11:09;5.97;;;3.42;;
45344;SDS011;31078;48.304;11.896;2022-07-18T05:13:36;7.03;;;3.55;;
45344;SDS011;31078;48.304;11.896;2022-07-18T05:16:02;4.03;;;3.38;;
45344;SDS011;31078;48.304;11.896;2022-07-18T05:18:29;4.93;;;3.63;;
45344;SDS011;31078;48.304;11.896;2022-07-18T05:20:57;5.78;;;3.50;;
45344;SDS011;31078;48.304;11.896;2022-07-18T05:23:24;4.78;;;3.20;;
45344;SDS011;31078;48.304;11.896;2022-07-18T05:25:50;5.05;;;3.08;;
45344;SDS011;31078;48.304;11.896;2022-07-18T05:28:17;4.72;;;3.28;;
45344;SDS011;31078;48.304;11.896;2022-07-18T05:30:44;5.68;;;3.10;;
45344;SDS011;31078;48.304;11.896;2022-07-18T05:33:10;4.53;;;3.20;;
45344;SDS011;31078;48.304;11.896;2022-07-18T05:35:37;7.70;;;3.83;;
45344;SDS011;31078;48.304;11.896;2022-07-18T05:38:05;5.38;;;3.60;;
45344;SDS011;31078;48.304;11.896;2022-07-18T05:40:32;4.78;;;3.22;;
45344;SDS011;31078;48.304;11.896;2022-07-18T05:42:59;5.82;;;3.35;;
45344;SDS011;31078;48.304;11.896;2022-07-18T05:45:25;5.93;;;3.45;;
45344;SDS011;31078;48.304;11.896;2022-07-18T05:47:52;4.10;;;2.90;;
45344;SDS011;31078;48.304;11.896;2022-07-18T05:50:19;5.10;;;3.58;;
45344;SDS011;31078;48.304;11.896;2022-07-18T05:52:46;4.60;;;3.38;;
45344;SDS011;31078;48.304;11.896;2022-07-18T05:55:14;4.60;;;3.00;;
45344;SDS011;31078;48.304;11.896;2022-07-18T05:57:41;4.88;;;3.38;;
45344;SDS011;31078;48.304;11.896;2022-07-18T06:00:08;4.25;;;2.90;;
45344;SDS011;31078;48.304;11.896;2022-07-18T06:02:36;5.25;;;3.10;;
45344;SDS011;31078;48.304;11.896;2022-07-18T06:05:03;4.10;;;2.88;;
45344;SDS011;31078;48.304;11.896;2022-07-18T06:07:31;6.72;;;3.47;;
45344;SDS011;31078;48.304;11.896;2022-07-18T06:09:57;9.07;;;3.50;;
45344;SDS011;31078;48.304;11.896;2022-07-18T06:12:25;5.95;;;3.30;;
45344;SDS011;31078;48.304;11.896;2022-07-18T06:14:55;6.28;;;2.95;;
45344;SDS011;31078;48.304;11.896;2022-07-18T06:17:22;5.15;;;3.20;;
45344;SDS011;31078;48.304;11.896;2022-07-18T06:19:49;4.07;;;2.92;;
45344;SDS011;31078;48.304;11.896;2022-07-18T06:22:15;7.22;;;3.67;;
45344;SDS011;31078;48.304;11.896;2022-07-18T06:24:42;5.38;;;3.33;;
45344;SDS011;31078;48.304;11.896;2022-07-18T06:27:09;5.28;;;2.83;;
45344;SDS011;31078;48.304;11.896;2022-07-18T06:29:37;6.53;;;3.00;;
45344;SDS011;31078;48.304;11.896;2022-07-18T06:32:04;5.25;;;3.03;;
45344;SDS011;31078;48.304;11.896;2022-07-18T06:34:31;4.20;;;3.22;;
45344;SDS011;31078;48.304;11.896;2022-07-18T06:36:57;5.80;;;3.10;;
45344;SDS011;31078;48.304;11.896;2022-07-18T06:39:24;5.90;;;3.13;;
45344;SDS011;31078;48.304;11.896;2022-07-18T06:41:50;4.85;;;2.50;;
45344;SDS011;31078;48.304;11.896;2022-07-18T06:44:17;6.63;;;3.20;;
45344;SDS011;31078;48.304;11.896;2022-07-18T06:46:45;4.93;;;3.13;;
45344;SDS011;31078;48.304;11.896;2022-07-18T06:49:12;6.72;;;3.10;;
45344;SDS011;31078;48.304;11.896;2022-07-18T06:51:38;5.35;;;2.95;;
45344;SDS011;31078;48.304;11.896;2022-07-18T06:54:05;7.10;;;3.28;;
45344;SDS011;31078;48.304;11.896;2022-07-18T06:56:31;4.45;;;2.72;;
45344;SDS011;31078;48.304;11.896;2022-07-18T06:58:58;6.60;;;3.05;;
45344;SDS011;31078;48.304;11.896;2022-07-18T07:01:24;3.55;;;2.45;;
45344;SDS011;31078;48.304;11.896;2022-07-18T07:03:52;2.95;;;2.35;;
45344;SDS011;31078;48.304;11.896;2022-07-18T07:06:19;5.38;;;2.80;;
45344;SDS011;31078;48.304;11.896;2022-07-18T07:08:45;6.20;;;2.90;;
45344;SDS011;31078;48.304;11.896;2022-07-18T07:11:12;3.97;;;2.83;;
45344;SDS011;31078;48.304;11.896;2022-07-18T07:13:39;3.13;;;2.50;;
45344;SDS011;31078;48.304;11.896;2022-07-18T07:16:05;4.25;;;2.70;;
45344;SDS011;31078;48.304;11.896;2022-07-18T07:18:32;3.33;;;2.65;;
45344;SDS011;31078;48.304;11.896;2022-07-18T07:21:00;3.25;;;2.53;;
45344;SDS011;31078;48.304;11.896;2022-07-18T07:23:27;4.72;;;2.42;;
45344;SDS011;31078;48.304;11.896;2022-07-18T07:25:53;4.63;;;2.90;;
45344;SDS011;31078;48.304;11.896;2022-07-18T07:28:20;6.05;;;2.50;;
45344;SDS011;31078;48.304;11.896;2022-07-18T07:30:47;3.53;;;2.65;;
45344;SDS011;31078;48.304;11.896;2022-07-18T07:33:13;4.35;;;2.42;;
45344;SDS011;31078;48.304;11.896;2022-07-18T07:35:40;3.25;;;2.25;;
45344;SDS011;31078;48.304;11.896;2022-07-18T07:38:08;6.13;;;2.45;;
45344;SDS011;31078;48.304;11.896;2022-07-18T07:40:35;3.63;;;2.50;;
45344;SDS011;31078;48.304;11.896;2022-07-18T07:43:05;3.40;;;2.30;;
45344;SDS011;31078;48.304;11.896;2022-07-18T07:45:33;3.72;;;2.58;;
45344;SDS011;31078;48.304;11.896;2022-07-18T07:48:00;3.50;;;2.17;;
45344;SDS011;31078;48.304;11.896;2022-07-18T07:50:26;4.72;;;2.45;;
45344;SDS011;31078;48.304;11.896;2022-07-18T07:52:54;5.63;;;2.35;;
45344;SDS011;31078;48.304;11.896;2022-07-18T07:55:22;3.20;;;2.53;;
45344;SDS011;31078;48.304;11.896;2022-07-18T07:57:49;5.10;;;2.83;;
45344;SDS011;31078;48.304;11.896;2022-07-18T08:00:15;4.18;;;2.47;;
45344;SDS011;31078;48.304;11.896;2022-07-18T08:02:52;5.88;;;2.30;;
45344;SDS011;31078;48.304;11.896;2022-07-18T08:05:20;3.28;;;2.10;;
45344;SDS011;31078;48.304;11.896;2022-07-18T08:07:47;5.57;;;2.30;;
45344;SDS011;31078;48.304;11.896;2022-07-18T08:10:13;3.17;;;2.10;;
45344;SDS011;31078;48.304;11.896;2022-07-18T08:12:42;6.10;;;2.20;;
45344;SDS011;31078;48.304;11.896;2022-07-18T08:15:09;4.97;;;2.10;;
45344;SDS011;31078;48.304;11.896;2022-07-18T08:17:36;3.30;;;2.00;;
45344;SDS011;31078;48.304;11.896;2022-07-18T08:20:03;3.33;;;2.17;;
45344;SDS011;31078;48.304;11.896;2022-07-18T08:22:30;3.80;;;2.22;;
45344;SDS011;31078;48.304;11.896;2022-07-18T08:24:57;5.80;;;2.42;;
45344;SDS011;31078;48.304;11.896;2022-07-18T08:27:23;4.35;;;2.00;;
45344;SDS011;31078;48.304;11.896;2022-07-18T08:29:51;3.88;;;1.90;;
45344;SDS011;31078;48.304;11.896;2022-07-18T08:32:18;5.72;;;2.10;;
45344;SDS011;31078;48.304;11.896;2022-07-18T08:34:44;5.28;;;2.00;;
45344;SDS011;31078;48.304;11.896;2022-07-18T08:37:11;3.53;;;1.95;;
45344;SDS011;31078;48.304;11.896;2022-07-18T08:39:37;3.92;;;2.20;;
45344;SDS011;31078;48.304;11.896;2022-07-18T08:42:04;3.65;;;2.00;;
45344;SDS011;31078;48.304;11.896;2022-07-18T08:44:32;2.95;;;2.15;;
45344;SDS011;31078;48.304;11.896;2022-07-18T08:47:03;2.35;;;1.67;;
45344;SDS011;31078;48.304;11.896;2022-07-18T08:49:31;3.83;;;2.35;;
45344;SDS011;31078;48.304;11.896;2022-07-18T08:51:59;2.83;;;1.80;;
45344;SDS011;31078;48.304;11.896;2022-07-18T08:54:26;5.47;;;2.00;;
45344;SDS011;31078;48.304;11.896;2022-07-18T08:56:52;2.83;;;2.00;;
45344;SDS011;31078;48.304;11.896;2022-07-18T08:59:19;2.83;;;1.90;;
45344;SDS011;31078;48.304;11.896;2022-07-18T09:01:45;3.53;;;2.20;;
45344;SDS011;31078;48.304;11.896;2022-07-18T09:04:15;6.70;;;2.00;;
45344;SDS011;31078;48.304;11.896;2022-07-18T09:06:57;2.85;;;1.60;;
45344;SDS011;31078;48.304;11.896;2022-07-18T09:09:24;1.92;;;1.30;;
45344;SDS011;31078;48.304;11.896;2022-07-18T09:11:51;1.95;;;1.42;;
45344;SDS011;31078;48.304;11.896;2022-07-18T09:14:33;5.13;;;1.80;;
45344;SDS011;31078;48.304;11.896;2022-07-18T09:17:06;3.13;;;1.30;;
45344;SDS011;31078;48.304;11.896;2022-07-18T09:22:13;2.25;;;1.60;;
45344;SDS011;31078;48.304;11.896;2022-07-18T09:24:55;5.13;;;1.67;;
45344;SDS011;31078;48.304;11.896;2022-07-18T09:27:28;3.25;;;1.38;;
45344;SDS011;31078;48.304;11.896;2022-07-18T09:30:13;4.55;;;1.38;;
45344;SDS011;31078;48.304;11.896;2022-07-18T09:32:43;2.67;;;1.48;;
45344;SDS011;31078;48.304;11.896;2022-07-18T09:35:13;3.20;;;1.77;;
45344;SDS011;31078;48.304;11.896;2022-07-18T09:37:51;3.75;;;1.33;;
45344;SDS011;31078;48.304;11.896;2022-07-18T09:40:20;3.83;;;1.48;;
45344;SDS011;31078;48.304;11.896;2022-07-18T09:42:48;5.20;;;1.30;;
45344;SDS011;31078;48.304;11.896;2022-07-18T09:45:15;2.85;;;1.55;;
45344;SDS011;31078;48.304;11.896;2022-07-18T09:47:48;3.22;;;1.30;;
45344;SDS011;31078;48.304;11.896;2022-07-18T09:50:21;3.45;;;1.17;;
45344;SDS011;31078;48.304;11.896;2022-07-18T09:52:57;4.97;;;1.83;;
45344;SDS011;31078;48.304;11.896;2022-07-18T09:55:42;2.60;;;1.08;;
45344;SDS011;31078;48.304;11.896;2022-07-18T09:58:10;3.58;;;1.38;;
45344;SDS011;31078;48.304;11.896;2022-07-18T10:00:37;3.22;;;1.73;;
45344;SDS011;31078;48.304;11.896;2022-07-18T10:03:05;2.83;;;1.10;;
45344;SDS011;31078;48.304;11.896;2022-07-18T10:05:35;4.20;;;1.45;;
45344;SDS011;31078;48.304;11.896;2022-07-18T10:08:03;3.03;;;1.35;;
45344;SDS011;31078;48.304;11.896;2022-07-18T10:10:31;2.33;;;1.05;;
45344;SDS011;31078;48.304;11.896;2022-07-18T10:12:58;2.50;;;1.30;;
45344;SDS011;31078;48.304;11.896;2022-07-18T10:15:27;2.38;;;1.20;;
45344;SDS011;31078;48.304;11.896;2022-07-18T10:17:55;2.78;;;1.30;;
45344;SDS011;31078;48.304;11.896;2022-07-18T10:20:26;1.92;;;1.42;;
45344;SDS011;31078;48.304;11.896;2022-07-18T10:22:58;3.30;;;1.30;;
45344;SDS011;31078;48.304;11.896;2022-07-18T10:25:27;2.33;;;1.30;;
45344;SDS011;31078;48.304;11.896;2022-07-18T10:28:01;2.25;;;1.40;;
45344;SDS011;31078;48.304;11.896;2022-07-18T10:30:32;3.47;;;1.42;;
45344;SDS011;31078;48.304;11.896;2022-07-18T10:33:00;2.15;;;1.38;;
45344;SDS011;31078;48.304;11.896;2022-07-18T10:38:27;3.63;;;1.30;;
45344;SDS011;31078;48.304;11.896;2022-07-18T10:41:10;2.63;;;1.10;;
45344;SDS011;31078;48.304;11.896;2022-07-18T10:43:39;2.58;;;1.17;;
45344;SDS011;31078;48.304;11.896;2022-07-18T10:46:07;3.38;;;1.42;;
45344;SDS011;31078;48.304;11.896;2022-07-18T10:48:47;3.42;;;1.25;;
45344;SDS011;31078;48.304;11.896;2022-07-18T10:51:19;6.97;;;1.40;;
45344;SDS011;31078;48.304;11.896;2022-07-18T10:54:02;2.00;;;1.20;;
45344;SDS011;31078;48.304;11.896;2022-07-18T10:59:38;2.05;;;1.23;;
45344;SDS011;31078;48.304;11.896;2022-07-18T11:02:20;2.78;;;1.75;;
45344;SDS011;31078;48.304;11.896;2022-07-18T11:04:57;2.72;;;1.40;;
45344;SDS011;31078;48.304;11.896;2022-07-18T11:07:24;3.55;;;1.50;;
45344;SDS011;31078;48.304;11.896;2022-07-18T11:09:52;5.50;;;1.48;;
45344;SDS011;31078;48.304;11.896;2022-07-18T11:12:22;4.22;;;1.30;;
45344;SDS011;31078;48.304;11.896;2022-07-18T11:15:00;3.10;;;1.27;;
45344;SDS011;31078;48.304;11.896;2022-07-18T11:20:34;3.90;;;1.42;;
45344;SDS011;31078;48.304;11.896;2022-07-18T11:23:02;2.45;;;1.25;;
45344;SDS011;31078;48.304;11.896;2022-07-18T11:25:31;10.32;;;1.50;;
45344;SDS011;31078;48.304;11.896;2022-07-18T11:27:58;3.05;;;1.52;;
45344;SDS011;31078;48.304;11.896;2022-07-18T11:30:24;2.65;;;1.45;;
45344;SDS011;31078;48.304;11.896;2022-07-18T11:32:51;2.65;;;1.20;;
45344;SDS011;31078;48.304;11.896;2022-07-18T11:35:21;2.00;;;1.30;;
45344;SDS011;31078;48.304;11.896;2022-07-18T11:37:49;2.63;;;1.40;;
45344;SDS011;31078;48.304;11.896;2022-07-18T11:40:17;3.83;;;1.70;;
45344;SDS011;31078;48.304;11.896;2022-07-18T11:42:45;3.05;;;1.38;;
45344;SDS011;31078;48.304;11.896;2022-07-18T11:45:13;2.95;;;1.30;;
45344;SDS011;31078;48.304;11.896;2022-07-18T11:47:45;5.15;;;1.50;;
45344;SDS011;31078;48.304;11.896;2022-07-18T11:50:12;4.32;;;1.30;;
45344;SDS011;31078;48.304;11.896;2022-07-18T11:52:40;2.65;;;1.20;;
45344;SDS011;31078;48.304;11.896;2022-07-18T11:55:07;1.40;;;1.00;;
45344;SDS011;31078;48.304;11.896;2022-07-18T11:57:34;2.05;;;1.27;;
45344;SDS011;31078;48.304;11.896;2022-07-18T12:00:12;2.83;;;1.20;;
45344;SDS011;31078;48.304;11.896;2022-07-18T12:02:40;3.00;;;1.60;;
45344;SDS011;31078;48.304;11.896;2022-07-18T12:05:07;4.70;;;1.58;;
45344;SDS011;31078;48.304;11.896;2022-07-18T12:07:34;2.40;;;1.40;;
45344;SDS011;31078;48.304;11.896;2022-07-18T12:10:14;2.55;;;1.25;;
45344;SDS011;31078;48.304;11.896;2022-07-18T12:12:42;4.45;;;1.08;;
45344;SDS011;31078;48.304;11.896;2022-07-18T12:15:10;4.30;;;1.40;;
45344;SDS011;31078;48.304;11.896;2022-07-18T12:17:42;3.17;;;0.95;;
45344;SDS011;31078;48.304;11.896;2022-07-18T12:20:11;3.85;;;1.42;;
45344;SDS011;31078;48.304;11.896;2022-07-18T12:28:22;15.13;;;2.30;;
45344;SDS011;31078;48.304;11.896;2022-07-18T12:30:52;4.32;;;1.65;;
45344;SDS011;31078;48.304;11.896;2022-07-18T12:33:19;4.15;;;1.35;;
45344;SDS011;31078;48.304;11.896;2022-07-18T12:35:54;4.65;;;1.17;;
45344;SDS011;31078;48.304;11.896;2022-07-18T12:38:22;1.88;;;1.25;;
45344;SDS011;31078;48.304;11.896;2022-07-18T12:40:49;5.05;;;1.95;;
45344;SDS011;31078;48.304;11.896;2022-07-18T12:43:22;6.10;;;2.20;;
45344;SDS011;31078;48.304;11.896;2022-07-18T12:45:52;1.88;;;1.05;;
45344;SDS011;31078;48.304;11.896;2022-07-18T12:48:19;1.88;;;1.20;;
45344;SDS011;31078;48.304;11.896;2022-07-18T12:50:53;3.63;;;1.23;;
45344;SDS011;31078;48.304;11.896;2022-07-18T12:53:23;2.72;;;1.60;;
45344;SDS011;31078;48.304;11.896;2022-07-18T12:55:50;3.58;;;1.27;;
45344;SDS011;31078;48.304;11.896;2022-07-18T12:58:16;2.63;;;1.35;;
45344;SDS011;31078;48.304;11.896;2022-07-18T13:00:43;2.47;;;1.20;;
45344;SDS011;31078;48.304;11.896;2022-07-18T13:03:13;2.45;;;1.23;;
45344;SDS011;31078;48.304;11.896;2022-07-18T13:05:40;3.95;;;1.30;;
45344;SDS011;31078;48.304;11.896;2022-07-18T13:08:07;3.42;;;1.42;;
45344;SDS011;31078;48.304;11.896;2022-07-18T13:10:35;2.80;;;1.00;;
45344;SDS011;31078;48.304;11.896;2022-07-18T13:13:02;2.22;;;1.23;;
45344;SDS011;31078;48.304;11.896;2022-07-18T13:15:29;1.63;;;1.00;;
45344;SDS011;31078;48.304;11.896;2022-07-18T13:17:58;2.28;;;1.08;;
45344;SDS011;31078;48.304;11.896;2022-07-18T13:20:27;2.45;;;1.10;;
45344;SDS011;31078;48.304;11.896;2022-07-18T13:22:55;2.83;;;1.40;;
45344;SDS011;31078;48.304;11.896;2022-07-18T13:25:22;1.77;;;1.15;;
45344;SDS011;31078;48.304;11.896;2022-07-18T13:27:49;1.65;;;1.10;;
45344;SDS011;31078;48.304;11.896;2022-07-18T13:30:16;3.45;;;1.27;;
45344;SDS011;31078;48.304;11.896;2022-07-18T13:32:42;2.17;;;1.38;;
45344;SDS011;31078;48.304;11.896;2022-07-18T13:35:10;1.67;;;1.10;;
45344;SDS011;31078;48.304;11.896;2022-07-18T13:37:38;3.85;;;1.30;;
45344;SDS011;31078;48.304;11.896;2022-07-18T13:40:05;4.00;;;1.30;;
45344;SDS011;31078;48.304;11.896;2022-07-18T13:42:34;1.65;;;0.93;;
45344;SDS011;31078;48.304;11.896;2022-07-18T13:45:01;1.33;;;1.00;;
45344;SDS011;31078;48.304;11.896;2022-07-18T13:47:28;2.42;;;1.20;;
45344;SDS011;31078;48.304;11.896;2022-07-18T13:49:55;5.13;;;1.40;;
45344;SDS011;31078;48.304;11.896;2022-07-18T13:52:21;6.10;;;1.40;;
45344;SDS011;31078;48.304;11.896;2022-07-18T13:54:49;3.40;;;1.40;;
45344;SDS011;31078;48.304;11.896;2022-07-18T13:57:19;2.15;;;1.23;;
45344;SDS011;31078;48.304;11.896;2022-07-18T13:59:45;3.58;;;1.20;;
45344;SDS011;31078;48.304;11.896;2022-07-18T14:02:12;3.50;;;1.20;;
45344;SDS011;31078;48.304;11.896;2022-07-18T14:04:38;1.40;;;1.13;;
45344;SDS011;31078;48.304;11.896;2022-07-18T14:07:05;3.67;;;2.50;;
45344;SDS011;31078;48.304;11.896;2022-07-18T14:09:32;2.72;;;1.50;;
45344;SDS011;31078;48.304;11.896;2022-07-18T14:12:00;3.17;;;1.02;;
45344;SDS011;31078;48.304;11.896;2022-07-18T14:14:27;2.75;;;1.10;;
45344;SDS011;31078;48.304;11.896;2022-07-18T14:16:53;2.85;;;1.10;;
45344;SDS011;31078;48.304;11.896;2022-07-18T14:19:20;2.88;;;1.17;;
45344;SDS011;31078;48.304;11.896;2022-07-18T14:21:47;4.25;;;1.55;;
45344;SDS011;31078;48.304;11.896;2022-07-18T14:24:13;2.88;;;1.40;;
45344;SDS011;31078;48.304;11.896;2022-07-18T14:26:40;3.25;;;1.20;;
45344;SDS011;31078;48.304;11.896;2022-07-18T14:29:08;3.50;;;1.50;;
45344;SDS011;31078;48.304;11.896;2022-07-18T14:31:35;2.83;;;1.30;;
45344;SDS011;31078;48.304;11.896;2022-07-18T14:34:01;3.28;;;1.20;;
45344;SDS011;31078;48.304;11.896;2022-07-18T14:36:28;2.92;;;1.38;;
45344;SDS011;31078;48.304;11.896;2022-07-18T14:38:56;2.50;;;1.25;;
45344;SDS011;31078;48.304;11.896;2022-07-18T14:41:22;3.80;;;1.10;;
45344;SDS011;31078;48.304;11.896;2022-07-18T14:43:49;3.25;;;1.20;;
45344;SDS011;31078;48.304;11.896;2022-07-18T14:46:17;1.92;;;1.20;;
45344;SDS011;31078;48.304;11.896;2022-07-18T14:48:43;3.63;;;1.30;;
45344;SDS011;31078;48.304;11.896;2022-07-18T14:51:10;2.53;;;1.00;;
45344;SDS011;31078;48.304;11.896;2022-07-18T14:53:36;2.65;;;1.10;;
45344;SDS011;31078;48.304;11.896;2022-07-18T14:56:03;2.45;;;1.00;;